Time;durP1;ratioP1;P1;durP2;ratioP2;P2;SDS_P1;SDS_P2;PMS_P1;PMS_P2;Temp;Humidity;BMP_temperature;BMP_pressure;BME280_temperature;BME280_humidity;BME280_pressure;Samples;Min_cycle;Max_cycle;Signal;HPM_P1;HPM_P2
2021/09/29 19:39:59;;;;;;;8.52;2.08;;;14.10;64.30;;;;;;5130393;27;20110;-80
2021/09/29 19:42:24;;;;;;;6.47;2.00;;;14.10;64.90;;;;;;5111780;28;20023;-76
2021/09/29 19:44:50;;;;;;;6.82;1.90;;;14.10;64.90;;;;;;5127629;28;20077;-77
2021/09/29 19:47:32;;;;;;;6.28;1.65;;;14.10;64.90;;;;;;5127843;28;20073;-77
2021/09/29 19:50:15;;;;;;;5.00;1.60;;;14.10;64.90;;;;;;5129096;28;20388;-78
2021/09/29 20:08:41;;;;;;;6.28;1.50;;;14.20;65.10;;;;;;5127305;28;20096;-77
2021/09/29 20:11:07;;;;;;;5.20;1.30;;;14.20;65.30;;;;;;5125693;28;20032;-77
2021/09/29 20:13:36;;;;;;;5.15;1.40;;;14.20;65.60;;;;;;5091363;28;20057;-78
2021/09/29 20:16:04;;;;;;;8.25;1.88;;;14.10;65.60;;;;;;5127913;28;20030;-78
2021/09/29 20:18:31;;;;;;;8.38;1.48;;;14.10;65.70;;;;;;5128523;28;20172;-77
2021/09/29 20:20:58;;;;;;;4.82;1.40;;;14.10;65.80;;;;;;5110254;28;20176;-76
2021/09/29 20:23:26;;;;;;;4.40;1.20;;;14.10;65.80;;;;;;5128374;28;20084;-79
2021/09/29 20:25:53;;;;;;;4.75;1.30;;;14.10;65.90;;;;;;5127078;28;20366;-76
2021/09/29 20:28:19;;;;;;;5.32;1.10;;;14.10;66.00;;;;;;5110164;28;20041;-77
2021/09/29 20:30:47;;;;;;;7.07;1.55;;;14.10;66.00;;;;;;5127179;28;20023;-78
2021/09/29 20:33:45;;;;;;;4.93;1.38;;;14.20;66.00;;;;;;5128517;28;20195;-78
2021/09/29 20:42:17;;;;;;;8.27;2.00;;;14.00;65.90;;;;;;5128189;28;20055;-77
2021/09/29 20:44:20;;;;;;;6.50;2.35;;;14.00;66.00;;;;;;5126949;28;20027;-78
2021/09/29 20:46:45;;;;;;;;;;;14.00;66.30;;;;;;5127235;28;20031;-77
2021/09/29 20:49:11;;;;;;;10.85;3.95;;;13.90;66.80;;;;;;5126961;27;19912;-76
2021/09/29 20:51:37;;;;;;;5.82;1.50;;;13.90;66.40;;;;;;5095725;28;20049;-78
2021/09/29 20:54:05;;;;;;;11.85;1.58;;;13.90;66.70;;;;;;5113224;28;20051;-77
2021/09/29 20:56:31;;;;;;;5.22;1.48;;;13.80;66.80;;;;;;5113155;28;20562;-78
2021/09/29 20:58:57;;;;;;;6.85;1.73;;;13.80;66.90;;;;;;5114292;28;20500;-78
2021/09/29 21:01:23;;;;;;;5.57;1.25;;;13.80;67.10;;;;;;5114261;28;20036;-76
2021/09/29 21:03:48;;;;;;;9.05;1.90;;;13.80;67.20;;;;;;5095837;28;20534;-77
2021/09/29 21:06:14;;;;;;;6.57;1.40;;;13.80;67.30;;;;;;5114450;28;20028;-79
2021/09/29 21:09:04;;;;;;;8.93;1.35;;;13.70;67.30;;;;;;5112723;28;20085;-78
2021/09/29 21:11:34;;;;;;;7.28;1.50;;;13.70;67.40;;;;;;5114057;28;20112;-79
2021/09/29 21:14:05;;;;;;;7.50;2.10;;;13.80;67.50;;;;;;5112756;28;20077;-77
2021/09/29 21:19:01;;;;;;;6.93;1.38;;;13.70;67.70;;;;;;5112613;28;20039;-78
2021/09/29 21:21:26;;;;;;;6.30;1.45;;;13.70;67.90;;;;;;5113868;28;20034;-77
2021/09/29 21:23:53;;;;;;;5.20;1.27;;;13.70;68.10;;;;;;5112637;28;20035;-77
2021/09/29 21:26:20;;;;;;;4.82;1.30;;;13.70;68.20;;;;;;5112468;28;20023;-78
2021/09/29 21:28:46;;;;;;;5.03;1.23;;;13.70;68.30;;;;;;5113711;28;20424;-77
2021/09/29 21:31:12;;;;;;;9.18;1.60;;;13.70;68.40;;;;;;5113712;28;20027;-76
2021/09/29 21:33:40;;;;;;;6.07;1.30;;;13.70;68.50;;;;;;5112442;28;20032;-76
2021/09/29 21:36:06;;;;;;;7.47;1.30;;;13.70;68.60;;;;;;5095540;28;20389;-77
2021/09/29 21:38:41;;;;;;;4.82;1.60;;;13.70;68.70;;;;;;5095166;28;20051;-77
2021/09/29 21:41:33;;;;;;;7.47;1.88;;;13.70;68.90;;;;;;5113713;28;20381;-76
2021/09/29 21:44:33;;;;;;;5.20;1.25;;;13.70;69.10;;;;;;5085711;28;20024;-77
2021/09/29 22:05:21;;;;;;;7.00;1.35;;;13.40;70.70;;;;;;5113280;28;20027;-78
2021/09/29 22:13:40;;;;;;;5.63;1.30;;;13.40;71.90;;;;;;5113201;28;20038;-76
2021/09/29 23:07:14;;;;;;;7.35;1.30;;;12.70;83.10;;;;;;5111112;28;20068;-77
2021/09/29 23:14:54;;;;;;;6.07;0.93;;;12.50;84.80;;;;;;5111661;28;20031;-77
2021/09/29 23:33:35;;;;;;;7.80;1.17;;;12.50;88.30;;;;;;5110873;28;20140;-77
2021/09/29 23:36:01;;;;;;;6.03;1.30;;;12.50;88.70;;;;;;5110414;28;20031;-77
2021/09/29 23:38:27;;;;;;;8.85;2.00;;;12.60;89.40;;;;;;5111330;28;20039;-77
2021/09/29 23:41:03;;;;;;;10.73;1.60;;;12.60;89.70;;;;;;5110424;28;20110;-77
2021/09/29 23:43:30;;;;;;;;;;;12.60;90.00;;;;;;5112117;28;20701;-76
2021/09/29 23:45:56;;;;;;;9.95;1.42;;;12.60;90.30;;;;;;5110225;28;19911;-76
2021/09/29 23:48:22;;;;;;;;;;;12.70;90.20;;;;;;5111905;28;20054;-77
2021/09/29 23:50:47;;;;;;;7.05;1.25;;;12.70;90.50;;;;;;5110275;28;20377;-78
2021/09/29 23:53:13;;;;;;;5.07;1.00;;;12.70;90.60;;;;;;5110197;28;20020;-77
2021/09/29 23:55:39;;;;;;;9.73;1.30;;;12.70;90.80;;;;;;5110319;28;20050;-77
2021/09/29 23:58:05;;;;;;;9.48;1.73;;;12.70;90.90;;;;;;5076102;28;20081;-76
